Accueil
METAR-TAF:

METAR-TAF

Aéroports :

Aéroport de Milan Malpensa

Milan, Italie

latitude: 45-37N, longitude: 008-44E, altitude: 234 m

Observation

Le bulletin a été fait il y a 20 minutes, à 12:20 UTC
Vent 7 kt de sud-ouest, variant entre sud et ouest
Température 30°C
Humidité 38%
Pression 1015 hPa
Visibilité 10 km ou plus
pas de nuages en-dessous de 1500 mètres et pas de cumulonimbus.

METAR: LIMC 171220Z 22007KT 170V280 CAVOK 30/14 Q1015 NOSIG

Heure: 14:40 (12:40 UTC)

Prévision

Le bulletin a été fait il y a 1 heure et 40 minutes, à 11:00 UTC
Prévision valable du 17 à 12 UTC au 18 à 18 UTC
Vent 5 kt de direction variable
Visibilité 10 km ou plus
Nuages épars à une hauteur de 6000 ft

TAF: LIMC 171100Z 1712/1818 VRB05KT 9999 SCT060

Observations et prévisions météorologiques de plus de 4000 aéroports (messages METAR et TAF).

Les stations disponibles sont représentées par des disques jaunes et rouges sur la carte.

Passer la souris dessus pour voir le nom de la station.

Cliquer dessus pour voir les observations et prévisions météorologiques.

Pour changer de carte: cliquez sur les boutons verts avec une croix noire pour zoomer, sur le bouton vert avec un tiret pour effectuer un zoom arrière, ou sur les flèches vertes pour les cartes adjacentes.


METAR-TAF: